sensor_id;sensor_type;location;lat;lon;timestamp;P1;durP1;ratioP1;P2;durP2;ratioP2
47383;SDS011;33129;52.232;5.192;2022-08-06T00:01:54;7.70;;;1.97;;
47383;SDS011;33129;52.232;5.192;2022-08-06T00:04:20;6.80;;;1.60;;
47383;SDS011;33129;52.232;5.192;2022-08-06T00:06:46;8.43;;;1.43;;
47383;SDS011;33129;52.232;5.192;2022-08-06T00:09:12;7.00;;;1.70;;
47383;SDS011;33129;52.232;5.192;2022-08-06T00:11:38;8.23;;;1.80;;
47383;SDS011;33129;52.232;5.192;2022-08-06T00:14:05;7.00;;;1.90;;
47383;SDS011;33129;52.232;5.192;2022-08-06T00:16:32;7.37;;;2.00;;
47383;SDS011;33129;52.232;5.192;2022-08-06T00:18:57;6.83;;;1.83;;
47383;SDS011;33129;52.232;5.192;2022-08-06T00:21:23;7.03;;;1.50;;
47383;SDS011;33129;52.232;5.192;2022-08-06T00:23:49;6.77;;;2.47;;
47383;SDS011;33129;52.232;5.192;2022-08-06T00:26:15;6.30;;;1.67;;
47383;SDS011;33129;52.232;5.192;2022-08-06T00:28:40;7.17;;;1.60;;
47383;SDS011;33129;52.232;5.192;2022-08-06T00:31:06;5.07;;;1.70;;
47383;SDS011;33129;52.232;5.192;2022-08-06T00:33:35;6.63;;;1.90;;
47383;SDS011;33129;52.232;5.192;2022-08-06T00:36:01;5.67;;;1.77;;
47383;SDS011;33129;52.232;5.192;2022-08-06T00:38:27;6.03;;;1.80;;
47383;SDS011;33129;52.232;5.192;2022-08-06T00:40:53;6.30;;;1.60;;
47383;SDS011;33129;52.232;5.192;2022-08-06T00:43:19;5.33;;;1.50;;
47383;SDS011;33129;52.232;5.192;2022-08-06T00:45:45;5.30;;;1.70;;
47383;SDS011;33129;52.232;5.192;2022-08-06T00:48:12;5.57;;;1.90;;
47383;SDS011;33129;52.232;5.192;2022-08-06T00:50:38;6.50;;;2.53;;
47383;SDS011;33129;52.232;5.192;2022-08-06T00:53:05;5.70;;;1.60;;
47383;SDS011;33129;52.232;5.192;2022-08-06T00:55:30;6.17;;;1.80;;
47383;SDS011;33129;52.232;5.192;2022-08-06T00:57:56;5.30;;;1.67;;
47383;SDS011;33129;52.232;5.192;2022-08-06T01:00:22;5.87;;;1.83;;
47383;SDS011;33129;52.232;5.192;2022-08-06T01:02:47;4.53;;;1.60;;
47383;SDS011;33129;52.232;5.192;2022-08-06T01:05:13;6.87;;;1.63;;
47383;SDS011;33129;52.232;5.192;2022-08-06T01:07:39;7.23;;;1.60;;
47383;SDS011;33129;52.232;5.192;2022-08-06T01:10:05;3.17;;;1.30;;
47383;SDS011;33129;52.232;5.192;2022-08-06T01:12:31;4.83;;;1.90;;
47383;SDS011;33129;52.232;5.192;2022-08-06T01:14:56;4.30;;;1.50;;
47383;SDS011;33129;52.232;5.192;2022-08-06T01:17:26;5.70;;;1.90;;
47383;SDS011;33129;52.232;5.192;2022-08-06T01:29:30;7.30;;;2.10;;
47383;SDS011;33129;52.232;5.192;2022-08-06T01:32:09;5.37;;;1.63;;
47383;SDS011;33129;52.232;5.192;2022-08-06T01:34:47;5.77;;;1.50;;
47383;SDS011;33129;52.232;5.192;2022-08-06T01:37:22;5.53;;;2.27;;
47383;SDS011;33129;52.232;5.192;2022-08-06T01:39:57;5.33;;;1.80;;
47383;SDS011;33129;52.232;5.192;2022-08-06T01:42:29;4.97;;;1.83;;
47383;SDS011;33129;52.232;5.192;2022-08-06T01:44:57;5.10;;;1.57;;
47383;SDS011;33129;52.232;5.192;2022-08-06T01:47:26;6.60;;;1.83;;
47383;SDS011;33129;52.232;5.192;2022-08-06T01:49:55;5.50;;;1.40;;
47383;SDS011;33129;52.232;5.192;2022-08-06T01:52:24;4.85;;;1.63;;
47383;SDS011;33129;52.232;5.192;2022-08-06T01:54:52;5.20;;;1.73;;
47383;SDS011;33129;52.232;5.192;2022-08-06T01:57:23;4.67;;;1.40;;
47383;SDS011;33129;52.232;5.192;2022-08-06T01:59:52;5.67;;;1.60;;
47383;SDS011;33129;52.232;5.192;2022-08-06T02:02:21;4.37;;;1.50;;
47383;SDS011;33129;52.232;5.192;2022-08-06T02:04:53;4.87;;;1.60;;
47383;SDS011;33129;52.232;5.192;2022-08-06T02:07:24;5.60;;;1.63;;
47383;SDS011;33129;52.232;5.192;2022-08-06T02:09:55;6.00;;;1.60;;
47383;SDS011;33129;52.232;5.192;2022-08-06T02:12:24;5.17;;;1.77;;
47383;SDS011;33129;52.232;5.192;2022-08-06T02:14:53;4.80;;;1.67;;
47383;SDS011;33129;52.232;5.192;2022-08-06T02:17:24;6.18;;;1.83;;
47383;SDS011;33129;52.232;5.192;2022-08-06T02:19:54;5.33;;;1.53;;
47383;SDS011;33129;52.232;5.192;2022-08-06T02:24:55;6.33;;;1.73;;
47383;SDS011;33129;52.232;5.192;2022-08-06T02:27:25;4.20;;;1.65;;
47383;SDS011;33129;52.232;5.192;2022-08-06T02:29:53;5.77;;;1.63;;
47383;SDS011;33129;52.232;5.192;2022-08-06T02:32:20;7.30;;;1.90;;
47383;SDS011;33129;52.232;5.192;2022-08-06T02:34:46;5.17;;;1.73;;
47383;SDS011;33129;52.232;5.192;2022-08-06T02:37:13;4.63;;;1.43;;
47383;SDS011;33129;52.232;5.192;2022-08-06T02:39:45;4.63;;;1.70;;
47383;SDS011;33129;52.232;5.192;2022-08-06T02:42:32;5.57;;;1.40;;
47383;SDS011;33129;52.232;5.192;2022-08-06T02:45:13;5.38;;;1.75;;
47383;SDS011;33129;52.232;5.192;2022-08-06T02:50:49;6.60;;;1.70;;
47383;SDS011;33129;52.232;5.192;2022-08-06T02:53:17;5.00;;;1.43;;
47383;SDS011;33129;52.232;5.192;2022-08-06T02:55:48;6.65;;;1.70;;
47383;SDS011;33129;52.232;5.192;2022-08-06T03:01:00;5.20;;;1.50;;
47383;SDS011;33129;52.232;5.192;2022-08-06T03:03:32;4.27;;;1.43;;
47383;SDS011;33129;52.232;5.192;2022-08-06T03:05:59;6.93;;;1.70;;
47383;SDS011;33129;52.232;5.192;2022-08-06T03:08:28;4.80;;;1.40;;
47383;SDS011;33129;52.232;5.192;2022-08-06T03:10:55;6.07;;;1.63;;
47383;SDS011;33129;52.232;5.192;2022-08-06T03:13:22;4.63;;;1.37;;
47383;SDS011;33129;52.232;5.192;2022-08-06T03:15:49;3.37;;;1.33;;
47383;SDS011;33129;52.232;5.192;2022-08-06T03:18:15;4.47;;;1.57;;
47383;SDS011;33129;52.232;5.192;2022-08-06T03:20:43;5.70;;;1.70;;
47383;SDS011;33129;52.232;5.192;2022-08-06T03:23:09;4.63;;;1.50;;
47383;SDS011;33129;52.232;5.192;2022-08-06T03:25:38;5.03;;;1.50;;
47383;SDS011;33129;52.232;5.192;2022-08-06T03:28:04;5.67;;;1.70;;
47383;SDS011;33129;52.232;5.192;2022-08-06T03:30:31;5.93;;;1.60;;
47383;SDS011;33129;52.232;5.192;2022-08-06T03:33:03;5.37;;;1.53;;
47383;SDS011;33129;52.232;5.192;2022-08-06T03:35:33;5.40;;;1.77;;
47383;SDS011;33129;52.232;5.192;2022-08-06T03:38:00;4.87;;;1.50;;
47383;SDS011;33129;52.232;5.192;2022-08-06T03:40:27;4.13;;;1.40;;
47383;SDS011;33129;52.232;5.192;2022-08-06T03:42:54;7.10;;;1.60;;
47383;SDS011;33129;52.232;5.192;2022-08-06T03:45:20;6.37;;;1.90;;
47383;SDS011;33129;52.232;5.192;2022-08-06T03:47:47;4.67;;;1.80;;
47383;SDS011;33129;52.232;5.192;2022-08-06T03:50:20;3.50;;;1.27;;
47383;SDS011;33129;52.232;5.192;2022-08-06T03:52:52;6.53;;;1.87;;
47383;SDS011;33129;52.232;5.192;2022-08-06T03:58:02;4.07;;;1.40;;
47383;SDS011;33129;52.232;5.192;2022-08-06T04:00:32;5.00;;;1.60;;
47383;SDS011;33129;52.232;5.192;2022-08-06T04:03:03;3.00;;;1.40;;
47383;SDS011;33129;52.232;5.192;2022-08-06T04:05:30;4.70;;;1.20;;
47383;SDS011;33129;52.232;5.192;2022-08-06T04:07:59;5.83;;;1.30;;
47383;SDS011;33129;52.232;5.192;2022-08-06T04:10:36;4.23;;;1.60;;
47383;SDS011;33129;52.232;5.192;2022-08-06T04:13:05;4.97;;;1.70;;
47383;SDS011;33129;52.232;5.192;2022-08-06T04:15:34;5.78;;;2.03;;
47383;SDS011;33129;52.232;5.192;2022-08-06T04:18:02;4.33;;;1.67;;
47383;SDS011;33129;52.232;5.192;2022-08-06T04:20:30;4.37;;;1.93;;
47383;SDS011;33129;52.232;5.192;2022-08-06T04:22:57;5.93;;;1.60;;
47383;SDS011;33129;52.232;5.192;2022-08-06T04:25:23;4.93;;;1.83;;
47383;SDS011;33129;52.232;5.192;2022-08-06T04:27:52;4.93;;;1.50;;
47383;SDS011;33129;52.232;5.192;2022-08-06T04:30:19;4.27;;;1.70;;
47383;SDS011;33129;52.232;5.192;2022-08-06T04:32:51;3.90;;;1.43;;
47383;SDS011;33129;52.232;5.192;2022-08-06T04:35:18;4.90;;;1.50;;
47383;SDS011;33129;52.232;5.192;2022-08-06T04:37:46;4.40;;;1.50;;
47383;SDS011;33129;52.232;5.192;2022-08-06T04:40:13;6.07;;;1.47;;
47383;SDS011;33129;52.232;5.192;2022-08-06T04:42:39;4.37;;;1.53;;
47383;SDS011;33129;52.232;5.192;2022-08-06T04:45:06;4.23;;;1.17;;
47383;SDS011;33129;52.232;5.192;2022-08-06T04:47:33;4.00;;;1.30;;
47383;SDS011;33129;52.232;5.192;2022-08-06T04:50:01;3.77;;;1.50;;
47383;SDS011;33129;52.232;5.192;2022-08-06T04:52:27;4.60;;;1.60;;
47383;SDS011;33129;52.232;5.192;2022-08-06T04:54:53;3.67;;;1.13;;
47383;SDS011;33129;52.232;5.192;2022-08-06T04:57:19;4.50;;;1.40;;
47383;SDS011;33129;52.232;5.192;2022-08-06T04:59:45;4.23;;;1.50;;
47383;SDS011;33129;52.232;5.192;2022-08-06T05:02:11;5.23;;;1.63;;
47383;SDS011;33129;52.232;5.192;2022-08-06T05:04:37;6.47;;;1.60;;
47383;SDS011;33129;52.232;5.192;2022-08-06T05:09:49;4.70;;;1.70;;
47383;SDS011;33129;52.232;5.192;2022-08-06T05:12:19;5.10;;;1.60;;
47383;SDS011;33129;52.232;5.192;2022-08-06T05:15:14;4.27;;;1.60;;
47383;SDS011;33129;52.232;5.192;2022-08-06T05:20:31;4.57;;;1.60;;
47383;SDS011;33129;52.232;5.192;2022-08-06T05:23:06;4.50;;;1.65;;
47383;SDS011;33129;52.232;5.192;2022-08-06T05:25:46;5.30;;;2.07;;
47383;SDS011;33129;52.232;5.192;2022-08-06T05:28:13;5.23;;;1.53;;
47383;SDS011;33129;52.232;5.192;2022-08-06T05:30:45;3.70;;;1.47;;
47383;SDS011;33129;52.232;5.192;2022-08-06T05:33:26;4.97;;;1.67;;
47383;SDS011;33129;52.232;5.192;2022-08-06T05:35:56;4.83;;;1.50;;
47383;SDS011;33129;52.232;5.192;2022-08-06T05:38:23;4.07;;;1.30;;
47383;SDS011;33129;52.232;5.192;2022-08-06T05:40:51;5.50;;;1.93;;
47383;SDS011;33129;52.232;5.192;2022-08-06T05:43:20;4.43;;;1.40;;
47383;SDS011;33129;52.232;5.192;2022-08-06T05:45:48;4.87;;;1.50;;
47383;SDS011;33129;52.232;5.192;2022-08-06T05:48:17;7.00;;;1.73;;
47383;SDS011;33129;52.232;5.192;2022-08-06T05:50:49;4.27;;;1.50;;
47383;SDS011;33129;52.232;5.192;2022-08-06T05:53:23;3.70;;;1.30;;
47383;SDS011;33129;52.232;5.192;2022-08-06T05:56:06;3.77;;;1.50;;
47383;SDS011;33129;52.232;5.192;2022-08-06T06:01:17;5.67;;;1.60;;
47383;SDS011;33129;52.232;5.192;2022-08-06T06:03:43;5.73;;;1.53;;
47383;SDS011;33129;52.232;5.192;2022-08-06T06:06:10;3.70;;;1.30;;
47383;SDS011;33129;52.232;5.192;2022-08-06T06:08:37;5.57;;;1.40;;
47383;SDS011;33129;52.232;5.192;2022-08-06T06:11:04;5.87;;;1.70;;
47383;SDS011;33129;52.232;5.192;2022-08-06T06:13:32;3.73;;;1.50;;
47383;SDS011;33129;52.232;5.192;2022-08-06T06:24:29;3.57;;;1.20;;
47383;SDS011;33129;52.232;5.192;2022-08-06T06:27:11;5.13;;;1.07;;
47383;SDS011;33129;52.232;5.192;2022-08-06T06:29:59;6.20;;;1.00;;
47383;SDS011;33129;52.232;5.192;2022-08-06T06:32:36;4.53;;;1.13;;
47383;SDS011;33129;52.232;5.192;2022-08-06T06:41:54;4.33;;;1.30;;
47383;SDS011;33129;52.232;5.192;2022-08-06T06:47:57;4.37;;;1.13;;
47383;SDS011;33129;52.232;5.192;2022-08-06T06:50:32;4.90;;;1.00;;
47383;SDS011;33129;52.232;5.192;2022-08-06T06:53:00;3.58;;;1.08;;
47383;SDS011;33129;52.232;5.192;2022-08-06T06:55:30;4.40;;;0.93;;
47383;SDS011;33129;52.232;5.192;2022-08-06T07:01:08;5.05;;;1.20;;
47383;SDS011;33129;52.232;5.192;2022-08-06T07:03:37;4.40;;;0.90;;
47383;SDS011;33129;52.232;5.192;2022-08-06T07:06:05;5.50;;;1.35;;
47383;SDS011;33129;52.232;5.192;2022-08-06T07:08:35;3.30;;;0.95;;
47383;SDS011;33129;52.232;5.192;2022-08-06T07:11:09;4.78;;;0.98;;
47383;SDS011;33129;52.232;5.192;2022-08-06T07:13:42;6.13;;;1.25;;
47383;SDS011;33129;52.232;5.192;2022-08-06T07:16:11;4.53;;;1.20;;
47383;SDS011;33129;52.232;5.192;2022-08-06T07:18:41;3.35;;;1.15;;
47383;SDS011;33129;52.232;5.192;2022-08-06T07:21:08;9.13;;;1.33;;
47383;SDS011;33129;52.232;5.192;2022-08-06T07:23:38;3.47;;;1.13;;
47383;SDS011;33129;52.232;5.192;2022-08-06T07:26:04;4.05;;;1.20;;
47383;SDS011;33129;52.232;5.192;2022-08-06T07:28:32;4.32;;;1.00;;
47383;SDS011;33129;52.232;5.192;2022-08-06T07:31:00;4.50;;;1.00;;
47383;SDS011;33129;52.232;5.192;2022-08-06T07:33:29;3.92;;;1.23;;
47383;SDS011;33129;52.232;5.192;2022-08-06T07:35:57;2.17;;;0.80;;
47383;SDS011;33129;52.232;5.192;2022-08-06T07:38:25;7.03;;;1.15;;
47383;SDS011;33129;52.232;5.192;2022-08-06T07:40:53;2.58;;;0.80;;
47383;SDS011;33129;52.232;5.192;2022-08-06T07:43:24;2.80;;;1.00;;
47383;SDS011;33129;52.232;5.192;2022-08-06T07:46:13;4.88;;;1.23;;
47383;SDS011;33129;52.232;5.192;2022-08-06T07:48:58;4.38;;;1.00;;
47383;SDS011;33129;52.232;5.192;2022-08-06T07:51:28;3.85;;;1.17;;
47383;SDS011;33129;52.232;5.192;2022-08-06T07:53:59;4.93;;;1.08;;
47383;SDS011;33129;52.232;5.192;2022-08-06T07:56:28;2.65;;;0.82;;
47383;SDS011;33129;52.232;5.192;2022-08-06T07:58:54;4.53;;;0.85;;
47383;SDS011;33129;52.232;5.192;2022-08-06T08:01:20;5.57;;;1.10;;
47383;SDS011;33129;52.232;5.192;2022-08-06T08:03:47;3.50;;;0.90;;
47383;SDS011;33129;52.232;5.192;2022-08-06T08:06:32;3.45;;;0.80;;
47383;SDS011;33129;52.232;5.192;2022-08-06T08:11:54;3.63;;;1.23;;
47383;SDS011;33129;52.232;5.192;2022-08-06T08:14:22;3.47;;;0.68;;
47383;SDS011;33129;52.232;5.192;2022-08-06T08:16:49;3.25;;;0.70;;
47383;SDS011;33129;52.232;5.192;2022-08-06T08:21:51;6.72;;;1.00;;
47383;SDS011;33129;52.232;5.192;2022-08-06T08:24:21;3.63;;;0.90;;
47383;SDS011;33129;52.232;5.192;2022-08-06T08:26:48;4.53;;;1.10;;
47383;SDS011;33129;52.232;5.192;2022-08-06T08:29:14;3.45;;;0.60;;
47383;SDS011;33129;52.232;5.192;2022-08-06T08:31:40;4.10;;;0.82;;
47383;SDS011;33129;52.232;5.192;2022-08-06T08:34:06;3.67;;;0.70;;
47383;SDS011;33129;52.232;5.192;2022-08-06T08:36:32;3.75;;;0.93;;
47383;SDS011;33129;52.232;5.192;2022-08-06T08:38:58;4.80;;;0.80;;
47383;SDS011;33129;52.232;5.192;2022-08-06T08:41:31;2.72;;;0.70;;
47383;SDS011;33129;52.232;5.192;2022-08-06T08:44:22;2.22;;;0.50;;
47383;SDS011;33129;52.232;5.192;2022-08-06T08:49:40;3.13;;;0.60;;
47383;SDS011;33129;52.232;5.192;2022-08-06T08:52:17;4.32;;;1.05;;
47383;SDS011;33129;52.232;5.192;2022-08-06T08:54:50;3.47;;;0.80;;
47383;SDS011;33129;52.232;5.192;2022-08-06T08:57:19;3.35;;;1.02;;
47383;SDS011;33129;52.232;5.192;2022-08-06T08:59:47;2.67;;;0.90;;
47383;SDS011;33129;52.232;5.192;2022-08-06T09:02:14;3.92;;;0.80;;
47383;SDS011;33129;52.232;5.192;2022-08-06T09:04:40;4.18;;;0.80;;
47383;SDS011;33129;52.232;5.192;2022-08-06T09:07:10;5.10;;;2.70;;
47383;SDS011;33129;52.232;5.192;2022-08-06T09:09:36;4.15;;;0.98;;
47383;SDS011;33129;52.232;5.192;2022-08-06T09:12:04;2.42;;;0.70;;
47383;SDS011;33129;52.232;5.192;2022-08-06T09:14:31;2.33;;;0.60;;
47383;SDS011;33129;52.232;5.192;2022-08-06T09:16:57;3.35;;;0.80;;
47383;SDS011;33129;52.232;5.192;2022-08-06T09:19:24;4.00;;;0.77;;
47383;SDS011;33129;52.232;5.192;2022-08-06T09:21:53;2.75;;;0.77;;
47383;SDS011;33129;52.232;5.192;2022-08-06T09:24:24;3.28;;;0.70;;
47383;SDS011;33129;52.232;5.192;2022-08-06T09:27:04;2.03;;;0.60;;
47383;SDS011;33129;52.232;5.192;2022-08-06T09:29:31;2.13;;;0.70;;
47383;SDS011;33129;52.232;5.192;2022-08-06T09:31:58;2.53;;;0.77;;
47383;SDS011;33129;52.232;5.192;2022-08-06T09:34:34;2.67;;;1.00;;
47383;SDS011;33129;52.232;5.192;2022-08-06T09:37:03;5.88;;;1.10;;
47383;SDS011;33129;52.232;5.192;2022-08-06T09:39:34;2.50;;;0.80;;
47383;SDS011;33129;52.232;5.192;2022-08-06T09:42:05;2.72;;;0.57;;
47383;SDS011;33129;52.232;5.192;2022-08-06T09:44:33;2.78;;;0.60;;
47383;SDS011;33129;52.232;5.192;2022-08-06T09:46:59;5.55;;;1.35;;
47383;SDS011;33129;52.232;5.192;2022-08-06T09:49:26;5.43;;;1.00;;
47383;SDS011;33129;52.232;5.192;2022-08-06T09:52:09;2.63;;;0.65;;
47383;SDS011;33129;52.232;5.192;2022-08-06T09:54:44;3.85;;;0.90;;
47383;SDS011;33129;52.232;5.192;2022-08-06T09:57:13;2.25;;;0.82;;
47383;SDS011;33129;52.232;5.192;2022-08-06T09:59:45;4.53;;;0.80;;
47383;SDS011;33129;52.232;5.192;2022-08-06T10:02:13;2.40;;;0.65;;
47383;SDS011;33129;52.232;5.192;2022-08-06T10:04:42;3.65;;;0.82;;
47383;SDS011;33129;52.232;5.192;2022-08-06T10:07:09;2.85;;;0.68;;
47383;SDS011;33129;52.232;5.192;2022-08-06T10:09:35;2.42;;;0.73;;
47383;SDS011;33129;52.232;5.192;2022-08-06T10:12:17;3.65;;;1.10;;
47383;SDS011;33129;52.232;5.192;2022-08-06T10:14:48;4.60;;;1.08;;
47383;SDS011;33129;52.232;5.192;2022-08-06T10:17:23;3.88;;;0.80;;
47383;SDS011;33129;52.232;5.192;2022-08-06T10:20:06;2.72;;;0.80;;
47383;SDS011;33129;52.232;5.192;2022-08-06T10:22:49;2.28;;;0.73;;
47383;SDS011;33129;52.232;5.192;2022-08-06T10:25:20;2.70;;;0.73;;
47383;SDS011;33129;52.232;5.192;2022-08-06T10:27:47;4.07;;;0.85;;
47383;SDS011;33129;52.232;5.192;2022-08-06T10:30:15;4.53;;;1.30;;
47383;SDS011;33129;52.232;5.192;2022-08-06T10:32:43;1.88;;;0.52;;
47383;SDS011;33129;52.232;5.192;2022-08-06T10:35:22;1.92;;;0.65;;
47383;SDS011;33129;52.232;5.192;2022-08-06T10:37:53;1.88;;;0.43;;
47383;SDS011;33129;52.232;5.192;2022-08-06T10:40:25;2.15;;;0.60;;
47383;SDS011;33129;52.232;5.192;2022-08-06T10:42:52;2.75;;;0.60;;
47383;SDS011;33129;52.232;5.192;2022-08-06T10:45:18;2.38;;;0.85;;
47383;SDS011;33129;52.232;5.192;2022-08-06T10:47:44;3.17;;;0.60;;
47383;SDS011;33129;52.232;5.192;2022-08-06T10:50:12;2.83;;;0.70;;
47383;SDS011;33129;52.232;5.192;2022-08-06T10:52:40;2.85;;;0.60;;
47383;SDS011;33129;52.232;5.192;2022-08-06T10:55:07;2.40;;;0.70;;
47383;SDS011;33129;52.232;5.192;2022-08-06T10:57:35;3.17;;;0.80;;
47383;SDS011;33129;52.232;5.192;2022-08-06T11:02:37;3.58;;;0.70;;
47383;SDS011;33129;52.232;5.192;2022-08-06T11:05:23;4.63;;;0.60;;
47383;SDS011;33129;52.232;5.192;2022-08-06T11:16:02;2.03;;;0.55;;
47383;SDS011;33129;52.232;5.192;2022-08-06T11:18:28;3.22;;;0.80;;
47383;SDS011;33129;52.232;5.192;2022-08-06T11:20:54;3.95;;;0.77;;
47383;SDS011;33129;52.232;5.192;2022-08-06T11:25:56;3.05;;;0.73;;
47383;SDS011;33129;52.232;5.192;2022-08-06T11:30:59;2.65;;;0.80;;
47383;SDS011;33129;52.232;5.192;2022-08-06T11:35:59;1.90;;;0.68;;
47383;SDS011;33129;52.232;5.192;2022-08-06T11:41:16;3.33;;;0.82;;
47383;SDS011;33129;52.232;5.192;2022-08-06T11:54:16;2.00;;;0.60;;
47383;SDS011;33129;52.232;5.192;2022-08-06T12:02:02;2.28;;;0.60;;
47383;SDS011;33129;52.232;5.192;2022-08-06T12:10:14;2.15;;;0.52;;
47383;SDS011;33129;52.232;5.192;2022-08-06T12:12:42;3.28;;;0.80;;
47383;SDS011;33129;52.232;5.192;2022-08-06T12:20:32;1.83;;;0.68;;
47383;SDS011;33129;52.232;5.192;2022-08-06T12:23:04;3.15;;;0.93;;
47383;SDS011;33129;52.232;5.192;2022-08-06T12:25:41;1.25;;;0.50;;
47383;SDS011;33129;52.232;5.192;2022-08-06T12:28:12;3.58;;;0.60;;
47383;SDS011;33129;52.232;5.192;2022-08-06T12:30:41;3.40;;;0.60;;
47383;SDS011;33129;52.232;5.192;2022-08-06T12:33:11;2.97;;;0.65;;
47383;SDS011;33129;52.232;5.192;2022-08-06T12:35:47;2.25;;;0.70;;
47383;SDS011;33129;52.232;5.192;2022-08-06T12:38:24;2.45;;;0.60;;
47383;SDS011;33129;52.232;5.192;2022-08-06T12:40:59;4.00;;;1.13;;
47383;SDS011;33129;52.232;5.192;2022-08-06T12:43:30;2.78;;;0.65;;
47383;SDS011;33129;52.232;5.192;2022-08-06T12:45:58;3.90;;;0.80;;
47383;SDS011;33129;52.232;5.192;2022-08-06T12:48:35;2.53;;;0.80;;
47383;SDS011;33129;52.232;5.192;2022-08-06T12:53:39;2.53;;;0.70;;
47383;SDS011;33129;52.232;5.192;2022-08-06T12:56:09;2.17;;;1.02;;
47383;SDS011;33129;52.232;5.192;2022-08-06T12:58:37;1.52;;;0.70;;
47383;SDS011;33129;52.232;5.192;2022-08-06T13:01:05;3.35;;;0.80;;
47383;SDS011;33129;52.232;5.192;2022-08-06T13:03:35;2.58;;;0.90;;
47383;SDS011;33129;52.232;5.192;2022-08-06T13:06:04;2.58;;;0.70;;
47383;SDS011;33129;52.232;5.192;2022-08-06T13:08:32;4.53;;;0.98;;
47383;SDS011;33129;52.232;5.192;2022-08-06T13:10:58;4.15;;;0.88;;
47383;SDS011;33129;52.232;5.192;2022-08-06T13:13:36;2.30;;;0.90;;
47383;SDS011;33129;52.232;5.192;2022-08-06T13:16:15;2.08;;;0.80;;
47383;SDS011;33129;52.232;5.192;2022-08-06T13:18:41;2.15;;;1.00;;
47383;SDS011;33129;52.232;5.192;2022-08-06T13:21:29;2.63;;;1.00;;
47383;SDS011;33129;52.232;5.192;2022-08-06T13:23:55;4.60;;;1.00;;
47383;SDS011;33129;52.232;5.192;2022-08-06T13:26:22;3.97;;;1.08;;
47383;SDS011;33129;52.232;5.192;2022-08-06T13:29:06;3.50;;;1.20;;
47383;SDS011;33129;52.232;5.192;2022-08-06T13:31:44;3.03;;;1.17;;
47383;SDS011;33129;52.232;5.192;2022-08-06T13:34:12;3.58;;;1.00;;
47383;SDS011;33129;52.232;5.192;2022-08-06T13:36:41;2.50;;;0.90;;
47383;SDS011;33129;52.232;5.192;2022-08-06T13:39:27;3.63;;;1.08;;
47383;SDS011;33129;52.232;5.192;2022-08-06T13:42:05;2.85;;;0.93;;
47383;SDS011;33129;52.232;5.192;2022-08-06T13:44:46;4.10;;;0.98;;
47383;SDS011;33129;52.232;5.192;2022-08-06T13:47:12;3.22;;;1.10;;
47383;SDS011;33129;52.232;5.192;2022-08-06T13:49:42;2.47;;;0.80;;
47383;SDS011;33129;52.232;5.192;2022-08-06T13:52:09;3.00;;;1.10;;
47383;SDS011;33129;52.232;5.192;2022-08-06T13:54:35;3.90;;;0.95;;
47383;SDS011;33129;52.232;5.192;2022-08-06T13:57:04;2.27;;;1.00;;
47383;SDS011;33129;52.232;5.192;2022-08-06T13:59:30;3.13;;;1.05;;
47383;SDS011;33129;52.232;5.192;2022-08-06T14:01:57;3.58;;;0.90;;
47383;SDS011;33129;52.232;5.192;2022-08-06T14:04:27;2.78;;;0.88;;
47383;SDS011;33129;52.232;5.192;2022-08-06T14:06:54;2.53;;;0.82;;
47383;SDS011;33129;52.232;5.192;2022-08-06T14:09:22;3.53;;;0.93;;
47383;SDS011;33129;52.232;5.192;2022-08-06T14:11:51;3.05;;;0.80;;
47383;SDS011;33129;52.232;5.192;2022-08-06T14:14:25;3.15;;;1.00;;
47383;SDS011;33129;52.232;5.192;2022-08-06T14:16:53;3.53;;;1.13;;
47383;SDS011;33129;52.232;5.192;2022-08-06T14:19:22;4.45;;;1.40;;
47383;SDS011;33129;52.232;5.192;2022-08-06T14:21:48;3.92;;;1.00;;
47383;SDS011;33129;52.232;5.192;2022-08-06T14:24:13;3.25;;;0.95;;
47383;SDS011;33129;52.232;5.192;2022-08-06T14:26:39;5.03;;;1.80;;
47383;SDS011;33129;52.232;5.192;2022-08-06T14:29:05;2.78;;;0.88;;
47383;SDS011;33129;52.232;5.192;2022-08-06T14:31:31;2.70;;;1.10;;
47383;SDS011;33129;52.232;5.192;2022-08-06T14:33:57;3.85;;;1.08;;
47383;SDS011;33129;52.232;5.192;2022-08-06T14:36:25;3.47;;;1.10;;
47383;SDS011;33129;52.232;5.192;2022-08-06T14:38:55;3.37;;;1.20;;
47383;SDS011;33129;52.232;5.192;2022-08-06T14:41:24;4.22;;;1.08;;
47383;SDS011;33129;52.232;5.192;2022-08-06T14:44:09;3.33;;;0.90;;
47383;SDS011;33129;52.232;5.192;2022-08-06T14:46:54;2.85;;;0.93;;
47383;SDS011;33129;52.232;5.192;2022-08-06T14:49:20;3.42;;;1.02;;
47383;SDS011;33129;52.232;5.192;2022-08-06T14:51:46;6.75;;;1.13;;
47383;SDS011;33129;52.232;5.192;2022-08-06T14:54:12;4.28;;;1.13;;
47383;SDS011;33129;52.232;5.192;2022-08-06T14:56:40;4.55;;;1.10;;
47383;SDS011;33129;52.232;5.192;2022-08-06T14:59:07;3.13;;;1.10;;
47383;SDS011;33129;52.232;5.192;2022-08-06T15:01:32;2.33;;;1.10;;
47383;SDS011;33129;52.232;5.192;2022-08-06T15:03:58;3.33;;;1.20;;
47383;SDS011;33129;52.232;5.192;2022-08-06T15:06:24;4.25;;;1.10;;
47383;SDS011;33129;52.232;5.192;2022-08-06T15:08:49;3.00;;;1.30;;
47383;SDS011;33129;52.232;5.192;2022-08-06T15:11:15;3.95;;;1.10;;
47383;SDS011;33129;52.232;5.192;2022-08-06T15:13:43;2.75;;;1.08;;
47383;SDS011;33129;52.232;5.192;2022-08-06T15:16:11;4.10;;;1.27;;
47383;SDS011;33129;52.232;5.192;2022-08-06T15:18:37;3.40;;;1.30;;
47383;SDS011;33129;52.232;5.192;2022-08-06T15:21:03;3.58;;;1.00;;
47383;SDS011;33129;52.232;5.192;2022-08-06T15:23:30;2.65;;;1.20;;
47383;SDS011;33129;52.232;5.192;2022-08-06T15:25:55;2.70;;;1.08;;
47383;SDS011;33129;52.232;5.192;2022-08-06T15:28:21;3.33;;;1.00;;
47383;SDS011;33129;52.232;5.192;2022-08-06T15:30:47;4.85;;;1.02;;
47383;SDS011;33129;52.232;5.192;2022-08-06T15:33:12;3.78;;;1.00;;
47383;SDS011;33129;52.232;5.192;2022-08-06T15:35:39;4.95;;;1.08;;
47383;SDS011;33129;52.232;5.192;2022-08-06T15:38:05;3.00;;;1.25;;
47383;SDS011;33129;52.232;5.192;2022-08-06T15:40:31;4.93;;;1.77;;
47383;SDS011;33129;52.232;5.192;2022-08-06T15:42:56;3.25;;;1.20;;
47383;SDS011;33129;52.232;5.192;2022-08-06T15:45:22;4.15;;;1.20;;
47383;SDS011;33129;52.232;5.192;2022-08-06T15:47:48;3.60;;;1.00;;
47383;SDS011;33129;52.232;5.192;2022-08-06T15:50:13;5.13;;;2.35;;
47383;SDS011;33129;52.232;5.192;2022-08-06T15:52:39;2.85;;;0.98;;
47383;SDS011;33129;52.232;5.192;2022-08-06T15:55:05;2.60;;;1.00;;
47383;SDS011;33129;52.232;5.192;2022-08-06T15:57:31;3.47;;;0.98;;
47383;SDS011;33129;52.232;5.192;2022-08-06T15:59:57;4.20;;;1.45;;
47383;SDS011;33129;52.232;5.192;2022-08-06T16:02:23;2.35;;;0.90;;
47383;SDS011;33129;52.232;5.192;2022-08-06T16:04:48;2.13;;;1.10;;
47383;SDS011;33129;52.232;5.192;2022-08-06T16:07:15;3.22;;;1.23;;
47383;SDS011;33129;52.232;5.192;2022-08-06T16:09:40;3.67;;;1.20;;
47383;SDS011;33129;52.232;5.192;2022-08-06T16:12:07;3.58;;;1.13;;
47383;SDS011;33129;52.232;5.192;2022-08-06T16:14:34;3.40;;;1.63;;
47383;SDS011;33129;52.232;5.192;2022-08-06T16:16:59;4.72;;;1.85;;
47383;SDS011;33129;52.232;5.192;2022-08-06T16:19:25;2.22;;;1.00;;
47383;SDS011;33129;52.232;5.192;2022-08-06T16:21:53;4.00;;;1.02;;
47383;SDS011;33129;52.232;5.192;2022-08-06T16:24:18;3.90;;;1.00;;
47383;SDS011;33129;52.232;5.192;2022-08-06T16:26:44;2.53;;;1.10;;
47383;SDS011;33129;52.232;5.192;2022-08-06T16:29:10;3.75;;;1.25;;
47383;SDS011;33129;52.232;5.192;2022-08-06T16:31:36;3.50;;;1.20;;
47383;SDS011;33129;52.232;5.192;2022-08-06T16:34:02;5.72;;;1.60;;
47383;SDS011;33129;52.232;5.192;2022-08-06T16:36:28;4.45;;;1.63;;
47383;SDS011;33129;52.232;5.192;2022-08-06T16:38:54;4.70;;;1.45;;
47383;SDS011;33129;52.232;5.192;2022-08-06T16:41:20;3.60;;;1.08;;
47383;SDS011;33129;52.232;5.192;2022-08-06T16:43:45;3.17;;;1.15;;
47383;SDS011;33129;52.232;5.192;2022-08-06T16:46:14;3.78;;;1.20;;
47383;SDS011;33129;52.232;5.192;2022-08-06T16:48:40;2.78;;;1.13;;
47383;SDS011;33129;52.232;5.192;2022-08-06T16:51:05;3.47;;;1.10;;